Time;durP1;ratioP1;P1;durP2;ratioP2;P2;SDS_P1;SDS_P2;PMS_P1;PMS_P2;Temp;Humidity;BMP_temperature;BMP_pressure;BME280_temperature;BME280_humidity;BME280_pressure;Samples;Min_cycle;Max_cycle;Signal;HPM_P1;HPM_P2
2022/01/21 00:00:41;;;;;;;1.37;1.00;;;4.30;51.40;;;;;;6254706;28;20471;-66
2022/01/21 00:03:45;;;;;;;1.03;0.93;;;4.20;50.90;;;;;;6253975;28;20480;-66
2022/01/21 00:06:48;;;;;;;3.30;1.00;;;4.20;51.30;;;;;;6253834;28;20857;-67
2022/01/21 00:09:51;;;;;;;1.83;1.73;;;4.20;51.70;;;;;;6254705;28;20786;-67
2022/01/21 00:12:57;;;;;;;1.17;1.07;;;4.20;51.90;;;;;;6256815;28;20474;-67
2022/01/21 00:16:00;;;;;;;0.80;0.80;;;4.20;52.60;;;;;;6254784;28;20485;-66
2022/01/21 00:19:10;;;;;;;0.90;0.80;;;4.20;53.20;;;;;;6253490;28;20493;-64
2022/01/21 00:32:16;;;;;;;1.17;1.07;;;4.20;54.50;;;;;;6252706;28;20483;-65
2022/01/21 00:35:21;;;;;;;0.83;0.83;;;4.20;54.70;;;;;;6242564;28;20473;-63
2022/01/21 00:38:26;;;;;;;0.80;0.80;;;4.30;54.70;;;;;;6228733;28;20603;-66
2022/01/21 00:41:34;;;;;;;1.07;0.70;;;4.30;54.50;;;;;;6228787;28;20490;-67
2022/01/21 00:44:39;;;;;;;0.77;0.77;;;4.30;54.50;;;;;;6228830;28;20476;-65
2022/01/21 00:47:42;;;;;;;0.70;0.70;;;4.30;54.50;;;;;;6227939;28;20475;-65
2022/01/21 00:50:47;;;;;;;1.20;1.10;;;4.30;53.80;;;;;;6226522;28;20488;-66
2022/01/21 00:53:51;;;;;;;1.00;1.00;;;4.30;54.00;;;;;;6221102;28;20482;-67
2022/01/21 00:56:54;;;;;;;1.00;1.00;;;4.30;54.10;;;;;;6223282;28;20483;-64
2022/01/21 00:59:59;;;;;;;0.70;0.70;;;4.20;54.30;;;;;;6227816;28;20484;-64
2022/01/21 01:03:02;;;;;;;0.80;0.80;;;4.30;54.70;;;;;;6227528;28;20994;-68
2022/01/21 01:06:05;;;;;;;1.83;1.00;;;4.30;54.20;;;;;;6228876;28;20472;-67
2022/01/21 01:09:09;;;;;;;1.23;0.90;;;4.30;52.80;;;;;;6229436;28;20971;-68
2022/01/21 01:12:20;;;;;;;0.80;0.80;;;4.30;51.10;;;;;;6227541;28;20480;-67
2022/01/21 01:22:07;;;;;;;1.00;1.00;;;4.10;49.50;;;;;;6227265;28;20765;-64
2022/01/21 01:28:32;;;;;;;1.10;1.00;;;4.10;53.40;;;;;;6230408;28;20467;-64
2022/01/21 01:31:36;;;;;;;0.90;0.90;;;4.20;50.40;;;;;;6228416;28;20468;-65
2022/01/21 01:34:40;;;;;;;0.80;0.80;;;4.20;49.60;;;;;;6227205;28;20782;-65
2022/01/21 01:41:06;;;;;;;2.73;0.80;;;4.10;49.50;;;;;;6224196;28;20484;-64
2022/01/21 01:50:53;;;;;;;0.80;0.80;;;4.10;50.60;;;;;;6226651;28;20876;-64
2022/01/21 01:54:00;;;;;;;0.93;0.90;;;4.00;51.00;;;;;;6226712;28;20972;-63
2022/01/21 01:57:03;;;;;;;1.10;1.00;;;4.00;51.40;;;;;;6226520;28;20482;-65
2022/01/21 02:00:08;;;;;;;1.00;0.90;;;3.90;50.70;;;;;;6211024;28;20476;-65
2022/01/21 02:03:15;;;;;;;1.10;1.00;;;3.90;50.80;;;;;;6201395;28;20465;-63
2022/01/21 02:06:18;;;;;;;0.90;0.90;;;3.90;48.80;;;;;;6200230;28;20934;-63
2022/01/21 02:09:23;;;;;;;0.90;0.80;;;4.00;49.40;;;;;;6200344;28;20472;-63
2022/01/21 02:12:26;;;;;;;0.93;0.93;;;4.10;50.90;;;;;;6224902;28;20885;-63
2022/01/21 02:15:30;;;;;;;1.40;1.10;;;4.20;50.80;;;;;;6224633;28;20475;-64
2022/01/21 02:22:01;;;;;;;1.13;1.03;;;4.30;52.00;;;;;;6223483;28;20488;-64
2022/01/21 02:25:15;;;;;;;1.43;1.00;;;4.20;51.60;;;;;;6225762;28;20487;-63
2022/01/21 02:28:19;;;;;;;1.10;1.00;;;4.30;52.10;;;;;;6225333;28;20812;-63
2022/01/21 02:31:23;;;;;;;1.10;1.10;;;4.20;52.50;;;;;;6223052;28;20975;-64
2022/01/21 02:34:26;;;;;;;0.90;0.90;;;4.20;53.20;;;;;;6225951;28;20476;-63
2022/01/21 02:37:31;;;;;;;1.23;1.10;;;4.20;53.10;;;;;;6225487;28;20486;-63
2022/01/21 02:40:34;;;;;;;1.80;1.00;;;4.10;51.80;;;;;;6225823;28;20968;-63
2022/01/21 02:43:37;;;;;;;0.90;0.90;;;4.00;52.00;;;;;;6226599;28;20820;-63
2022/01/21 02:46:41;;;;;;;0.80;0.80;;;4.10;50.90;;;;;;6226384;28;20479;-63
2022/01/21 02:49:45;;;;;;;0.93;0.83;;;4.10;50.90;;;;;;6226755;28;20874;-63
2022/01/21 02:53:07;;;;;;;1.13;0.90;;;4.10;50.60;;;;;;6225998;28;20471;-63
2022/01/21 02:56:11;;;;;;;0.93;0.93;;;4.10;50.90;;;;;;6225915;28;20472;-63
2022/01/21 02:59:14;;;;;;;1.30;0.97;;;4.10;50.90;;;;;;6225426;28;20483;-63
2022/01/21 03:02:17;;;;;;;0.83;0.83;;;4.00;50.80;;;;;;6225734;28;20476;-63
2022/01/21 03:05:20;;;;;;;2.50;0.90;;;4.00;51.10;;;;;;6216464;28;20771;-63
2022/01/21 03:08:25;;;;;;;0.80;0.80;;;4.00;51.50;;;;;;6225065;28;20479;-64
2022/01/21 03:11:29;;;;;;;0.90;0.90;;;4.00;51.40;;;;;;6225331;28;20476;-64
2022/01/21 03:14:32;;;;;;;0.80;0.80;;;4.00;51.60;;;;;;6225233;28;20480;-64
2022/01/21 03:17:35;;;;;;;0.83;0.83;;;3.90;51.70;;;;;;6228350;28;20476;-64
2022/01/21 03:20:38;;;;;;;0.90;0.90;;;3.90;51.80;;;;;;6229877;28;20483;-65
2022/01/21 03:23:46;;;;;;;3.27;1.80;;;3.90;52.00;;;;;;6230341;28;20482;-63
2022/01/21 03:26:49;;;;;;;2.60;2.40;;;3.90;52.80;;;;;;6230260;28;20472;-66
2022/01/21 03:29:52;;;;;;;3.83;2.73;;;4.00;53.50;;;;;;6229975;28;20472;-65
2022/01/21 03:32:55;;;;;;;3.33;2.50;;;4.00;53.70;;;;;;6229699;28;20482;-66
2022/01/21 03:35:58;;;;;;;4.30;2.43;;;4.00;54.00;;;;;;6230648;28;20800;-65
2022/01/21 03:39:04;;;;;;;3.10;2.23;;;4.10;54.10;;;;;;6229558;28;20480;-65
2022/01/21 03:42:07;;;;;;;1.90;1.80;;;4.10;53.80;;;;;;6230260;28;20484;-65
2022/01/21 03:45:12;;;;;;;2.70;1.20;;;4.20;53.50;;;;;;6229605;28;20799;-65
2022/01/21 03:48:16;;;;;;;0.90;0.90;;;4.30;53.50;;;;;;6229427;28;20448;-65
2022/01/21 03:51:20;;;;;;;1.00;0.90;;;4.20;53.40;;;;;;6229194;28;20545;-64
2022/01/21 03:54:25;;;;;;;2.70;0.90;;;4.10;55.70;;;;;;6229716;28;20901;-64
2022/01/21 03:57:28;;;;;;;1.27;1.17;;;4.00;59.20;;;;;;6229532;28;20471;-64
2022/01/21 04:00:36;;;;;;;1.03;0.90;;;3.90;63.30;;;;;;6229094;28;20468;-64
2022/01/21 04:03:40;;;;;;;0.70;0.70;;;3.80;66.40;;;;;;6228964;28;20807;-65
2022/01/21 04:06:43;;;;;;;1.67;0.90;;;3.60;68.90;;;;;;6224219;28;20818;-65
2022/01/21 04:09:47;;;;;;;1.07;0.93;;;3.50;71.30;;;;;;6228804;28;20479;-63
2022/01/21 04:12:51;;;;;;;1.00;1.00;;;3.50;74.50;;;;;;6230941;28;20488;-64
2022/01/21 04:15:56;;;;;;;0.90;0.90;;;3.30;75.60;;;;;;6229739;28;20475;-64
2022/01/21 04:18:59;;;;;;;0.90;0.90;;;3.20;78.20;;;;;;6229433;28;20475;-64
2022/01/21 04:22:02;;;;;;;1.00;1.00;;;3.20;79.20;;;;;;6229111;28;20510;-64
2022/01/21 04:25:08;;;;;;;0.80;0.80;;;3.10;80.70;;;;;;6229033;28;20542;-65
2022/01/21 04:28:12;;;;;;;1.10;1.00;;;3.10;80.90;;;;;;6228012;28;20479;-63
2022/01/21 04:31:15;;;;;;;0.83;0.77;;;3.10;81.90;;;;;;6228841;28;20483;-64
2022/01/21 04:34:18;;;;;;;0.80;0.80;;;3.10;83.00;;;;;;6228606;28;20482;-63
2022/01/21 04:37:21;;;;;;;0.80;0.80;;;3.10;83.70;;;;;;6229195;28;20990;-64
2022/01/21 04:40:29;;;;;;;2.10;0.80;;;3.00;84.10;;;;;;6231393;28;20472;-63
2022/01/21 04:50:14;;;;;;;0.70;0.70;;;3.00;71.50;;;;;;6228705;28;20960;-64
2022/01/21 04:53:17;;;;;;;1.27;0.77;;;3.00;68.60;;;;;;6231569;28;20471;-64
2022/01/21 04:56:22;;;;;;;0.80;0.80;;;3.00;67.20;;;;;;6231642;28;20471;-64
2022/01/21 04:59:25;;;;;;;1.63;1.53;;;3.00;65.20;;;;;;6229882;28;20984;-64
2022/01/21 05:02:29;;;;;;;2.97;0.90;;;3.10;65.30;;;;;;6228322;28;20471;-64
2022/01/21 05:05:33;;;;;;;1.27;0.87;;;3.10;63.90;;;;;;6228358;28;20495;-63
2022/01/21 05:08:43;;;;;;;1.07;0.80;;;3.10;63.10;;;;;;6227946;28;20506;-64
2022/01/21 05:11:51;;;;;;;0.70;0.70;;;3.10;63.70;;;;;;6227640;28;20511;-64
2022/01/21 05:15:10;;;;;;;0.93;0.93;;;3.10;63.70;;;;;;6227982;28;20468;-64
2022/01/21 05:18:13;;;;;;;2.10;0.80;;;3.20;63.90;;;;;;6228562;28;20463;-64
2022/01/21 05:21:16;;;;;;;0.80;0.80;;;3.20;63.90;;;;;;6228380;28;20506;-64
2022/01/21 05:24:21;;;;;;;0.80;0.80;;;3.30;63.00;;;;;;6228329;28;20455;-63
2022/01/21 05:27:25;;;;;;;0.60;0.60;;;3.30;62.80;;;;;;6228373;28;20460;-64
2022/01/21 05:30:29;;;;;;;1.57;1.10;;;3.30;61.30;;;;;;6227709;28;20796;-63
2022/01/21 05:33:32;;;;;;;1.00;0.80;;;3.30;62.00;;;;;;6227336;28;20553;-66
2022/01/21 05:36:37;;;;;;;1.53;1.10;;;3.40;61.10;;;;;;6226864;28;20475;-66
2022/01/21 05:39:40;;;;;;;2.60;1.03;;;3.40;59.10;;;;;;6227651;28;20504;-66
2022/01/21 05:42:45;;;;;;;1.00;1.00;;;3.40;58.10;;;;;;6227245;28;20467;-64
2022/01/21 05:49:08;;;;;;;4.30;1.10;;;3.40;56.00;;;;;;6227005;28;20559;-64
2022/01/21 05:52:16;;;;;;;1.57;0.80;;;3.40;54.50;;;;;;6226629;28;20472;-64
2022/01/21 05:55:20;;;;;;;2.67;0.93;;;3.40;54.10;;;;;;6226617;28;20472;-64
2022/01/21 05:58:25;;;;;;;1.67;0.80;;;3.40;54.10;;;;;;6226668;28;20471;-64
2022/01/21 06:01:28;;;;;;;0.90;0.90;;;3.30;53.00;;;;;;6226383;28;20979;-65
2022/01/21 06:04:33;;;;;;;1.50;0.77;;;3.20;51.50;;;;;;6226213;28;20828;-63
2022/01/21 06:07:36;;;;;;;2.37;0.83;;;3.20;51.10;;;;;;6227514;28;20943;-63
2022/01/21 06:10:39;;;;;;;2.40;1.20;;;3.20;50.20;;;;;;6226982;28;20977;-64
2022/01/21 06:13:45;;;;;;;1.93;1.00;;;3.20;49.80;;;;;;6226072;28;20827;-65
2022/01/21 06:16:49;;;;;;;1.27;1.10;;;3.10;49.10;;;;;;6217361;28;20479;-65
2022/01/21 06:19:52;;;;;;;2.73;1.27;;;3.10;49.50;;;;;;6226464;28;20494;-65
2022/01/21 06:22:55;;;;;;;3.93;1.63;;;3.10;49.50;;;;;;6227249;28;20487;-65
2022/01/21 06:25:58;;;;;;;10.27;1.23;;;3.00;50.10;;;;;;6227415;28;20471;-65
2022/01/21 06:29:03;;;;;;;1.80;1.10;;;3.00;50.10;;;;;;6226811;28;20482;-65
2022/01/21 06:32:06;;;;;;;1.83;1.63;;;2.90;50.00;;;;;;6226233;28;20472;-65
2022/01/21 06:35:10;;;;;;;1.37;1.27;;;2.80;49.90;;;;;;6226890;28;20486;-65
2022/01/21 06:38:14;;;;;;;2.10;1.17;;;2.80;50.10;;;;;;6226714;28;20475;-65
2022/01/21 06:41:17;;;;;;;1.90;1.13;;;2.80;51.10;;;;;;6225667;28;20836;-66
2022/01/21 06:44:21;;;;;;;3.70;1.47;;;2.80;51.50;;;;;;6225593;28;20476;-67
2022/01/21 06:47:25;;;;;;;2.20;1.60;;;2.80;51.20;;;;;;6225371;28;20475;-66
2022/01/21 06:50:28;;;;;;;2.30;1.20;;;2.90;51.20;;;;;;6225898;28;20486;-65
2022/01/21 06:53:31;;;;;;;2.60;1.30;;;2.80;51.20;;;;;;6225710;28;20793;-65
2022/01/21 06:56:34;;;;;;;10.33;2.23;;;2.80;51.30;;;;;;6226293;28;20487;-65
2022/01/21 06:59:39;;;;;;;2.30;1.27;;;2.70;51.60;;;;;;6226304;28;20479;-65
2022/01/21 07:02:42;;;;;;;1.53;1.30;;;2.80;51.80;;;;;;6226603;28;20479;-65
2022/01/21 07:05:46;;;;;;;3.17;1.80;;;2.90;51.40;;;;;;6226564;28;20475;-65
2022/01/21 07:08:49;;;;;;;6.10;1.70;;;2.90;51.00;;;;;;6226149;28;20468;-66
2022/01/21 07:11:53;;;;;;;3.73;1.20;;;2.90;50.30;;;;;;6225708;28;20502;-65
2022/01/21 07:14:57;;;;;;;8.37;1.97;;;2.90;50.00;;;;;;6226117;28;20483;-65
2022/01/21 07:18:01;;;;;;;1.60;1.50;;;2.90;50.00;;;;;;6225505;28;20484;-64
2022/01/21 07:21:04;;;;;;;2.70;1.33;;;2.90;49.90;;;;;;6221320;28;20479;-65
2022/01/21 07:24:08;;;;;;;6.17;2.00;;;3.00;49.90;;;;;;6226661;28;20479;-64
2022/01/21 07:27:11;;;;;;;1.73;1.50;;;3.10;49.50;;;;;;6225418;28;20905;-66
2022/01/21 07:30:16;;;;;;;1.73;1.00;;;3.10;48.80;;;;;;6225868;28;20456;-65
2022/01/21 07:33:20;;;;;;;3.27;1.47;;;3.10;48.60;;;;;;6225820;28;20459;-65
2022/01/21 07:36:24;;;;;;;1.67;1.20;;;3.10;48.30;;;;;;6225612;28;20448;-65
2022/01/21 07:39:27;;;;;;;1.53;1.20;;;3.10;47.60;;;;;;6225170;28;20463;-65
2022/01/21 07:42:30;;;;;;;3.30;1.53;;;3.00;48.30;;;;;;6225090;28;20460;-66
2022/01/21 07:45:36;;;;;;;1.13;1.00;;;3.10;49.00;;;;;;6225466;28;20471;-66
2022/01/21 07:48:39;;;;;;;2.53;1.00;;;3.20;48.50;;;;;;6225720;28;20475;-66
2022/01/21 07:51:43;;;;;;;1.17;1.07;;;3.10;48.40;;;;;;6225478;28;20471;-66
2022/01/21 07:54:46;;;;;;;1.43;1.17;;;3.10;48.60;;;;;;6225375;28;20459;-66
2022/01/21 07:57:49;;;;;;;1.90;1.30;;;2.90;48.60;;;;;;6225469;28;20972;-66
2022/01/21 08:00:54;;;;;;;2.90;1.50;;;2.90;49.00;;;;;;6224660;28;20478;-66
2022/01/21 08:04:03;;;;;;;1.63;1.20;;;2.80;48.30;;;;;;6227381;28;20472;-66
2022/01/21 08:07:09;;;;;;;1.80;1.40;;;2.80;48.20;;;;;;6229448;28;20460;-65
2022/01/21 08:10:12;;;;;;;8.23;2.50;;;2.90;49.20;;;;;;6229269;28;20483;-66
2022/01/21 08:13:15;;;;;;;5.27;1.37;;;2.80;49.00;;;;;;6227235;28;20471;-66
2022/01/21 08:16:21;;;;;;;6.13;1.60;;;2.80;48.30;;;;;;6212875;28;20796;-65
2022/01/21 08:19:24;;;;;;;1.27;1.17;;;2.80;48.80;;;;;;6205201;28;20476;-65
2022/01/21 08:22:28;;;;;;;2.20;1.60;;;2.90;48.80;;;;;;6204916;28;20547;-65
2022/01/21 08:25:31;;;;;;;2.50;1.87;;;2.80;48.70;;;;;;6200257;28;20546;-65
2022/01/21 08:28:34;;;;;;;3.53;1.97;;;2.80;47.80;;;;;;6204859;28;20468;-65
2022/01/21 08:31:39;;;;;;;2.20;1.90;;;2.80;48.30;;;;;;6217007;28;20479;-65
2022/01/21 08:34:42;;;;;;;5.17;1.67;;;2.90;48.30;;;;;;6223651;28;20479;-65
2022/01/21 08:37:45;;;;;;;1.23;1.10;;;2.90;48.20;;;;;;6221876;28;20543;-65
2022/01/21 08:40:48;;;;;;;1.10;1.00;;;2.90;48.00;;;;;;6203958;28;20512;-65
2022/01/21 08:43:52;;;;;;;1.27;1.10;;;3.00;48.30;;;;;;6204594;28;20540;-65
2022/01/21 08:46:56;;;;;;;6.57;1.50;;;3.00;47.70;;;;;;6204653;28;20473;-65
2022/01/21 08:50:18;;;;;;;1.43;1.33;;;3.00;47.80;;;;;;6206435;28;20473;-65
2022/01/21 08:53:41;;;;;;;1.33;1.20;;;3.10;46.70;;;;;;6204304;28;20484;-65
2022/01/21 08:56:45;;;;;;;0.90;0.90;;;3.10;46.30;;;;;;6187297;28;20469;-65
2022/01/21 08:59:49;;;;;;;1.77;1.53;;;3.20;46.00;;;;;;6203230;28;20519;-65
2022/01/21 09:02:53;;;;;;;1.73;1.00;;;3.20;46.00;;;;;;6203443;28;20481;-65
2022/01/21 09:05:57;;;;;;;4.30;1.30;;;3.20;45.40;;;;;;6203552;28;20484;-66
2022/01/21 09:09:01;;;;;;;0.83;0.80;;;3.20;44.80;;;;;;6203928;28;20491;-65
2022/01/21 09:12:05;;;;;;;3.07;1.23;;;3.20;45.00;;;;;;6227414;28;20499;-65
2022/01/21 09:15:09;;;;;;;2.13;1.20;;;3.20;45.10;;;;;;6228665;28;20834;-65
2022/01/21 09:18:18;;;;;;;1.80;1.03;;;3.10;44.00;;;;;;6228228;28;20459;-66
2022/01/21 09:21:23;;;;;;;2.80;1.43;;;3.10;43.40;;;;;;6226812;28;20484;-65
2022/01/21 09:24:26;;;;;;;1.10;1.10;;;3.10;44.00;;;;;;6227731;28;20459;-65
2022/01/21 09:27:30;;;;;;;4.00;1.10;;;3.10;44.10;;;;;;6217440;28;20458;-65
2022/01/21 09:30:33;;;;;;;1.13;1.10;;;3.10;44.30;;;;;;6226718;28;20814;-66
2022/01/21 09:33:38;;;;;;;1.37;1.17;;;3.10;44.10;;;;;;6227599;28;20479;-65
2022/01/21 09:36:43;;;;;;;0.90;0.90;;;3.20;43.70;;;;;;6217412;28;20610;-65
2022/01/21 09:39:46;;;;;;;1.47;1.30;;;3.30;43.50;;;;;;6220932;28;20467;-65
2022/01/21 09:42:51;;;;;;;5.23;1.77;;;3.20;43.10;;;;;;6214510;28;20475;-65
2022/01/21 09:45:56;;;;;;;1.83;1.23;;;3.30;43.90;;;;;;6228335;28;20479;-65
2022/01/21 09:49:08;;;;;;;1.57;1.00;;;3.40;44.60;;;;;;6227586;28;21009;-65
2022/01/21 09:52:16;;;;;;;2.03;1.70;;;3.40;43.40;;;;;;6228748;28;20491;-65
2022/01/21 09:55:22;;;;;;;2.40;1.83;;;3.40;43.50;;;;;;6227862;28;20476;-66
2022/01/21 09:58:27;;;;;;;3.30;1.20;;;3.50;43.00;;;;;;6228065;28;20526;-66
2022/01/21 10:01:31;;;;;;;1.87;1.20;;;3.60;43.20;;;;;;6226664;28;20987;-68
2022/01/21 10:04:37;;;;;;;2.93;1.23;;;3.60;42.50;;;;;;6227280;28;20472;-68
2022/01/21 10:07:42;;;;;;;1.33;1.00;;;3.70;41.90;;;;;;6226885;28;20472;-65
2022/01/21 10:10:45;;;;;;;1.53;1.43;;;3.70;42.00;;;;;;6208990;28;20480;-66
2022/01/21 10:13:49;;;;;;;1.80;0.90;;;3.80;41.60;;;;;;6226011;28;20472;-66
2022/01/21 10:16:53;;;;;;;1.53;1.40;;;3.90;42.10;;;;;;6227669;28;20502;-67
2022/01/21 10:20:13;;;;;;;1.40;1.20;;;4.00;42.10;;;;;;6227785;28;20979;-66
2022/01/21 10:23:20;;;;;;;2.80;1.60;;;4.10;41.50;;;;;;6227750;28;20873;-65
2022/01/21 10:26:23;;;;;;;2.10;1.10;;;4.20;41.10;;;;;;6227076;28;20858;-65
2022/01/21 10:29:37;;;;;;;4.07;1.17;;;4.30;41.50;;;;;;6227327;28;20970;-66
2022/01/21 10:32:43;;;;;;;1.20;1.00;;;4.50;40.10;;;;;;6223910;28;20486;-67
2022/01/21 10:36:17;;;;;;;0.93;0.90;;;4.80;40.10;;;;;;6228702;28;20530;-68
2022/01/21 10:39:29;;;;;;;4.30;1.20;;;5.30;39.10;;;;;;6227609;28;20464;-69
2022/01/21 10:42:32;;;;;;;1.10;0.97;;;6.80;37.40;;;;;;6227267;28;20468;-68
2022/01/21 10:45:48;;;;;;;2.40;1.13;;;9.80;35.20;;;;;;6226179;28;20470;-67
2022/01/21 10:49:05;;;;;;;2.47;1.10;;;13.70;28.40;;;;;;6226732;28;20485;-68
2022/01/21 10:52:13;;;;;;;3.70;1.20;;;14.00;25.70;;;;;;6226698;28;20479;-67
2022/01/21 10:55:28;;;;;;;1.47;0.90;;;12.50;25.00;;;;;;6225942;28;20488;-67
2022/01/21 10:58:38;;;;;;;1.23;0.90;;;10.70;26.30;;;;;;6225905;28;20790;-67
2022/01/21 11:01:42;;;;;;;3.67;1.20;;;9.30;27.60;;;;;;6226310;28;20491;-68
2022/01/21 11:04:45;;;;;;;1.80;0.97;;;8.60;28.20;;;;;;6226347;28;20487;-65
2022/01/21 11:07:58;;;;;;;1.83;0.70;;;9.20;29.20;;;;;;6226237;28;20975;-66
2022/01/21 11:11:02;;;;;;;3.13;0.97;;;12.30;26.90;;;;;;6225734;28;20792;-67
2022/01/21 11:14:11;;;;;;;4.40;0.87;;;14.60;23.80;;;;;;6226170;28;20476;-67
2022/01/21 11:17:16;;;;;;;2.43;1.10;;;14.40;22.90;;;;;;6226545;28;20460;-67
2022/01/21 11:20:35;;;;;;;3.93;1.20;;;15.40;22.70;;;;;;6226619;28;20487;-67
2022/01/21 11:23:40;;;;;;;2.40;0.60;;;18.70;21.30;;;;;;6226218;28;20484;-69
2022/01/21 11:26:43;;;;;;;2.53;1.40;;;21.70;19.10;;;;;;6225279;28;20482;-68
2022/01/21 11:29:49;;;;;;;3.80;0.80;;;23.70;17.20;;;;;;6225528;28;20251;-65
2022/01/21 11:32:52;;;;;;;3.53;1.00;;;24.80;15.60;;;;;;6225439;28;20240;-67
2022/01/21 11:35:55;;;;;;;3.53;0.93;;;26.70;15.10;;;;;;6225684;28;20323;-68
2022/01/21 11:39:00;;;;;;;3.57;0.80;;;28.80;13.80;;;;;;6229196;28;20250;-68
2022/01/21 11:42:06;;;;;;;2.43;1.20;;;30.40;12.40;;;;;;6229507;28;20340;-69
2022/01/21 11:45:23;;;;;;;3.00;1.33;;;30.80;11.60;;;;;;6230389;28;20572;-66
2022/01/21 11:52:13;;;;;;;1.85;0.70;;;31.10;10.60;;;;;;6230927;28;20232;-68
2022/01/21 11:55:34;;;;;;;2.37;1.10;;;31.40;9.80;;;;;;6231298;28;20229;-68
2022/01/21 11:58:38;;;;;;;2.80;0.80;;;31.10;10.10;;;;;;6229976;28;20233;-68
2022/01/21 12:01:47;;;;;;;1.90;0.60;;;30.40;9.80;;;;;;6229432;28;20247;-66
2022/01/21 12:04:52;;;;;;;1.80;0.70;;;29.40;10.20;;;;;;6230514;28;20571;-68
2022/01/21 12:07:55;;;;;;;1.67;0.70;;;29.40;10.20;;;;;;6229950;28;20252;-70
2022/01/21 12:11:00;;;;;;;4.40;0.90;;;30.40;10.40;;;;;;6231206;28;20251;-69
2022/01/21 12:14:07;;;;;;;2.60;0.87;;;30.10;10.10;;;;;;6229666;28;20224;-68
2022/01/21 12:17:18;;;;;;;4.83;1.43;;;29.50;10.10;;;;;;6229478;28;20676;-69
2022/01/21 12:20:32;;;;;;;2.10;1.47;;;29.50;10.40;;;;;;6229273;28;20551;-69
2022/01/21 12:23:44;;;;;;;2.60;1.33;;;30.10;10.60;;;;;;6230241;28;20232;-67
2022/01/21 12:26:58;;;;;;;1.00;0.77;;;30.60;10.40;;;;;;6229877;28;20235;-69
2022/01/21 12:30:26;;;;;;;1.90;0.80;;;30.50;9.90;;;;;;6230282;28;20283;-70
2022/01/21 12:34:00;;;;;;;3.10;1.03;;;30.30;10.10;;;;;;6231651;28;20241;-71
2022/01/21 12:37:09;;;;;;;2.13;0.87;;;31.20;10.00;;;;;;6230283;28;20228;-68
2022/01/21 12:40:33;;;;;;;4.80;0.90;;;31.80;9.80;;;;;;6215440;28;20239;-68
2022/01/21 12:43:43;;;;;;;5.18;1.27;;;33.00;9.50;;;;;;6229462;28;20239;-67
2022/01/21 12:46:52;;;;;;;2.33;1.02;;;33.10;9.20;;;;;;6229074;28;20240;-70
2022/01/21 12:49:57;;;;;;;1.70;0.60;;;32.70;9.40;;;;;;6228413;28;20233;-71
2022/01/21 12:53:18;;;;;;;1.23;0.60;;;32.90;9.50;;;;;;6229112;28;20270;-68
2022/01/21 12:56:21;;;;;;;2.25;0.88;;;33.20;9.60;;;;;;6229180;28;20239;-69
2022/01/21 12:59:29;;;;;;;1.70;0.73;;;33.20;9.10;;;;;;6230186;28;20246;-70
2022/01/21 13:02:33;;;;;;;3.28;0.90;;;32.50;8.90;;;;;;6228718;28;20231;-68
2022/01/21 13:05:44;;;;;;;1.20;0.60;;;30.90;9.60;;;;;;6228256;28;20592;-68
2022/01/21 13:09:02;;;;;;;1.63;0.93;;;30.30;10.00;;;;;;6229084;28;20242;-67
2022/01/21 13:12:11;;;;;;;2.07;0.93;;;30.80;10.10;;;;;;6228058;28;20263;-69
2022/01/21 13:15:16;;;;;;;3.10;1.00;;;29.70;9.90;;;;;;6228032;28;20639;-69
2022/01/21 13:18:22;;;;;;;1.53;1.03;;;28.60;10.50;;;;;;6228753;28;20213;-69
2022/01/21 13:21:25;;;;;;;2.50;0.87;;;27.10;11.00;;;;;;6227844;28;20227;-65
2022/01/21 13:24:36;;;;;;;2.33;1.10;;;26.60;11.50;;;;;;6228183;28;20248;-66
2022/01/21 13:27:45;;;;;;;2.63;1.40;;;27.30;11.60;;;;;;6227412;28;20247;-66
2022/01/21 13:30:50;;;;;;;3.13;1.00;;;28.00;11.40;;;;;;6227533;28;20623;-66
2022/01/21 13:34:11;;;;;;;1.70;0.70;;;26.80;11.30;;;;;;6227572;28;20288;-66
2022/01/21 13:37:18;;;;;;;1.83;0.90;;;26.30;11.50;;;;;;6227797;28;20250;-66
2022/01/21 13:40:21;;;;;;;2.50;0.70;;;26.40;12.10;;;;;;6228250;28;20249;-66
2022/01/21 13:43:26;;;;;;;2.97;1.20;;;27.30;11.90;;;;;;6217935;28;20242;-69
2022/01/21 13:46:32;;;;;;;1.20;0.70;;;27.60;11.60;;;;;;6227673;28;20335;-69
2022/01/21 13:49:36;;;;;;;1.80;0.90;;;27.60;11.40;;;;;;6227845;28;20234;-67
2022/01/21 13:52:42;;;;;;;2.30;0.80;;;26.80;11.20;;;;;;6227531;28;20241;-66
2022/01/21 13:55:48;;;;;;;1.47;0.80;;;25.20;11.80;;;;;;6228566;28;20240;-65
2022/01/21 13:58:57;;;;;;;1.23;1.00;;;24.00;12.30;;;;;;6227922;28;20237;-65
2022/01/21 14:02:05;;;;;;;2.60;0.70;;;23.50;12.80;;;;;;6227933;28;20237;-66
2022/01/21 14:05:09;;;;;;;2.37;1.47;;;23.40;13.20;;;;;;6228684;28;20236;-66
2022/01/21 14:08:13;;;;;;;1.77;0.80;;;23.30;13.00;;;;;;6228280;28;20229;-69
2022/01/21 14:11:24;;;;;;;5.67;1.30;;;23.40;13.20;;;;;;6227096;28;20256;-67
2022/01/21 14:14:27;;;;;;;3.90;1.03;;;23.90;13.30;;;;;;6226976;28;20233;-66
2022/01/21 14:17:34;;;;;;;1.43;0.90;;;24.20;12.60;;;;;;6226800;28;20228;-67
2022/01/21 14:20:39;;;;;;;0.90;0.80;;;23.80;12.40;;;;;;6226544;28;20240;-68
2022/01/21 14:23:44;;;;;;;1.60;0.87;;;22.20;12.80;;;;;;6227005;28;20233;-66
2022/01/21 14:26:50;;;;;;;1.70;0.97;;;20.60;13.70;;;;;;6226667;28;20239;-68
2022/01/21 14:29:59;;;;;;;2.30;0.80;;;19.00;14.30;;;;;;6226764;28;20264;-66
2022/01/21 14:33:06;;;;;;;1.73;0.90;;;17.20;15.30;;;;;;6226387;28;20978;-67
2022/01/21 14:36:14;;;;;;;1.43;0.50;;;15.40;16.30;;;;;;6226802;28;20484;-67
2022/01/21 14:39:20;;;;;;;0.93;0.73;;;13.70;16.70;;;;;;6226605;28;20487;-66
2022/01/21 14:42:25;;;;;;;1.00;0.77;;;12.10;17.90;;;;;;6227155;28;20466;-66
2022/01/21 14:45:29;;;;;;;1.67;0.97;;;11.10;18.90;;;;;;6218303;28;20488;-66
2022/01/21 14:48:36;;;;;;;1.60;1.50;;;10.30;19.80;;;;;;6225867;28;20476;-66
2022/01/21 14:51:47;;;;;;;1.73;1.27;;;9.50;21.40;;;;;;6225703;28;20483;-65
2022/01/21 14:54:51;;;;;;;1.80;1.40;;;8.80;22.60;;;;;;6225671;28;20472;-64
2022/01/21 14:57:56;;;;;;;6.43;1.17;;;8.30;23.30;;;;;;6226408;28;20486;-64
2022/01/21 15:01:04;;;;;;;1.83;1.20;;;8.00;23.50;;;;;;6226878;28;20487;-64
2022/01/21 15:04:14;;;;;;;2.97;1.10;;;7.70;23.90;;;;;;6226547;28;20475;-64
2022/01/21 15:07:24;;;;;;;4.10;1.30;;;7.30;23.90;;;;;;6227607;28;20542;-64
2022/01/21 15:10:35;;;;;;;1.70;1.47;;;6.90;24.80;;;;;;6226999;28;20480;-64
2022/01/21 15:17:03;;;;;;;2.43;1.20;;;6.30;25.70;;;;;;6232589;28;20483;-64
2022/01/21 15:20:10;;;;;;;2.20;1.40;;;6.00;26.30;;;;;;6232661;28;20507;-64
2022/01/21 15:23:14;;;;;;;2.80;2.00;;;5.80;26.30;;;;;;6233386;28;20472;-65
2022/01/21 15:26:18;;;;;;;3.13;1.30;;;5.60;26.50;;;;;;6234507;28;20555;-63
2022/01/21 15:29:21;;;;;;;2.10;1.00;;;5.50;26.80;;;;;;6235665;28;20498;-63
2022/01/21 15:32:25;;;;;;;4.73;1.30;;;5.20;26.70;;;;;;6235715;28;20467;-63
2022/01/21 15:35:30;;;;;;;1.53;1.00;;;5.00;27.30;;;;;;6206156;28;20468;-63
2022/01/21 15:38:33;;;;;;;1.77;1.30;;;4.90;27.80;;;;;;6205784;28;20481;-63
2022/01/21 15:41:36;;;;;;;1.53;0.93;;;4.70;28.30;;;;;;6205583;28;20499;-62
2022/01/21 15:44:39;;;;;;;1.53;1.10;;;4.60;28.80;;;;;;6205834;28;20480;-62
2022/01/21 15:47:44;;;;;;;1.30;1.20;;;4.50;29.10;;;;;;6205827;28;20464;-63
2022/01/21 15:50:49;;;;;;;2.47;1.40;;;4.50;29.30;;;;;;6210685;28;20472;-63
2022/01/21 15:53:53;;;;;;;2.40;1.37;;;4.50;29.10;;;;;;6213550;28;20473;-63
2022/01/21 15:56:56;;;;;;;1.70;1.20;;;4.40;29.80;;;;;;6226940;28;20471;-63
2022/01/21 15:59:59;;;;;;;1.33;1.23;;;4.20;29.60;;;;;;6229705;28;20484;-63
2022/01/21 16:03:05;;;;;;;1.67;1.00;;;4.20;29.80;;;;;;6229308;28;20478;-63
2022/01/21 16:06:11;;;;;;;9.57;5.90;;;4.20;29.90;;;;;;6227953;28;20480;-63
2022/01/21 16:09:14;;;;;;;6.60;3.70;;;4.20;29.90;;;;;;6227450;28;20800;-63
2022/01/21 16:12:18;;;;;;;3.10;1.97;;;4.10;30.00;;;;;;6227585;28;20480;-63
2022/01/21 16:15:21;;;;;;;1.57;1.47;;;4.10;30.30;;;;;;6227863;28;20444;-64
2022/01/21 16:18:26;;;;;;;3.13;1.87;;;4.10;30.40;;;;;;6228043;28;20448;-64
2022/01/21 16:21:30;;;;;;;1.90;1.60;;;4.20;30.40;;;;;;6229015;28;20471;-64
2022/01/21 16:24:34;;;;;;;2.10;1.17;;;4.20;30.40;;;;;;6227895;28;20827;-64
2022/01/21 16:27:38;;;;;;;1.63;1.13;;;4.20;30.20;;;;;;6228907;28;20757;-64
2022/01/21 16:30:41;;;;;;;1.93;1.50;;;4.30;30.00;;;;;;6228408;28;20930;-63
2022/01/21 16:33:44;;;;;;;1.70;1.47;;;4.40;30.10;;;;;;6228437;28;20472;-63
2022/01/21 16:36:49;;;;;;;1.50;1.20;;;4.40;30.00;;;;;;6228564;28;20474;-63
2022/01/21 16:39:56;;;;;;;4.40;1.40;;;4.40;30.20;;;;;;6228748;28;20998;-63
2022/01/21 16:42:59;;;;;;;2.43;1.50;;;4.40;30.10;;;;;;6228868;28;20609;-63
2022/01/21 16:46:02;;;;;;;2.50;1.10;;;4.40;30.30;;;;;;6228703;28;20478;-64
2022/01/21 16:49:06;;;;;;;8.20;1.53;;;4.40;30.50;;;;;;6228643;28;20475;-63
2022/01/21 16:52:10;;;;;;;3.90;1.10;;;4.40;30.50;;;;;;6229031;28;20517;-62
2022/01/21 16:55:14;;;;;;;6.73;3.83;;;4.40;30.50;;;;;;6228700;28;20509;-65
2022/01/21 16:58:18;;;;;;;1.90;1.30;;;4.40;31.30;;;;;;6228135;28;20816;-63
2022/01/21 17:01:22;;;;;;;2.13;1.30;;;4.40;31.10;;;;;;6228450;28;20480;-63
2022/01/21 17:04:26;;;;;;;1.70;1.00;;;4.30;31.20;;;;;;6227600;28;20480;-62
2022/01/21 17:07:31;;;;;;;1.70;1.60;;;4.30;31.70;;;;;;6228133;28;20782;-63